KOTH - North Bend, Oregon, USA
Updated: Fri, 23-Feb-2018 5:56pm PST
Overcast
Overcast
 Wind from S
Wind: S 7 mph , 11 km/h
Temperature: 43°F , 6°C
Wind Chill: 39°F , 4°C
Dew Point: 34°F , 1°C
Humidity: 71%
Barometer: 30.45 inHg , 1031.2 hPa
Clouds: Overcast
Visibility: 10 miles , 16 km
Cloud details: Overcast 3100 ft
2018/02/24 01:56 KOTH 240156Z 18006KT 10SM OVC031 06/01 A3045 RMK AO2 RAE13 SLP310 P0000 T00610006

Metar display script from Saratoga-Weather.org